Chadstone Weather > Observations for 07/10/20

Select Day:



Observations
Time Temp Hum DP Wind Gust Dir Rain >9am Press
C % C kph kph mm hPa
00:00 12.2 97 11.7 0.0 0.0 N 1.5 1028.4
00:10 12.3 97 11.8 0.0 0.0 N 1.5 1028.4
00:20 12.3 97 11.8 0.0 0.0 N 1.5 1028.3
00:30 12.3 97 11.8 0.1 2.5 W 1.5 1028.3
00:40 12.3 97 11.8 2.2 6.1 NW 1.5 1028.2
00:50 12.0 97 11.5 3.9 7.2 NNE 1.5 1028.1
01:00 11.8 98 11.5 4.6 8.6 N 1.5 1028.0
01:10 11.6 98 11.3 3.2 7.2 NNW 1.5 1027.9
01:20 11.5 98 11.2 2.2 5.0 N 1.5 1028.0
01:30 11.3 98 11.0 4.4 7.2 NNW 1.5 1027.9
01:40 11.2 98 10.9 3.0 5.0 NNW 1.5 1028.0
01:50 11.2 98 10.9 2.3 6.1 N 1.5 1027.8
02:00 11.1 98 10.8 3.9 7.2 NNW 1.8 1027.7
02:10 11.0 98 10.7 3.7 7.2 N 1.8 1027.4
02:20 11.0 98 10.7 1.3 5.0 NNW 1.8 1027.2
02:30 11.0 98 10.7 2.0 5.0 N 1.8 1026.7
02:40 11.0 98 10.7 0.5 5.0 NNE 1.8 1026.7
02:50 10.9 99 10.8 1.7 5.0 N 1.8 1026.6
03:00 10.9 99 10.8 2.2 5.0 N 1.8 1026.4
03:10 10.9 99 10.8 2.5 3.6 N 1.8 1026.4
03:20 10.9 99 10.8 2.5 3.6 N 1.8 1026.3
03:30 10.9 99 10.8 2.5 3.6 N 1.8 1026.2
03:40 10.9 99 10.8 2.5 3.6 N 1.8 1026.3
03:50 10.9 99 10.8 2.5 3.6 N 1.8 1026.2
04:00 10.9 99 10.8 2.5 3.6 N 1.8 1026.1
04:10 10.9 99 10.8 1.9 3.6 NW 1.8 1026.3
04:20 10.8 99 10.7 2.2 5.0 NW 1.8 1026.3
04:30 10.8 99 10.7 2.3 6.1 NNW 1.8 1026.0
04:40 10.8 99 10.7 2.5 5.0 NW 1.8 1025.9
04:50 10.8 99 10.7 1.2 5.0 N 1.8 1025.7
05:00 10.8 99 10.7 2.4 5.0 NNW 1.8 1025.5
05:10 10.8 99 10.7 1.2 5.0 N 1.8 1025.5
05:20 10.9 99 10.8 0.8 6.1 NNW 1.8 1025.5
05:30 10.8 99 10.7 2.2 5.0 N 1.8 1025.4
05:40 10.8 99 10.7 2.4 5.0 N 1.8 1025.3
05:50 10.8 99 10.7 0.8 3.6 N 1.8 1025.3
06:00 10.9 99 10.8 1.5 5.0 NW 1.8 1025.2
06:10 10.8 99 10.7 1.0 3.6 N 1.8 1025.4
06:20 10.8 99 10.7 0.1 2.5 NW 1.8 1025.4
06:30 10.8 99 10.7 0.2 2.5 NW 1.8 1025.5
06:40 10.8 99 10.7 0.2 2.5 NW 1.8 1025.7
06:50 10.9 99 10.8 0.3 2.5 NW 1.8 1025.6
07:00 10.9 99 10.8 1.2 3.6 NNW 1.8 1025.6
07:10 11.0 98 10.7 0.5 3.6 NNW 1.8 1025.4
07:20 10.9 99 10.8 1.3 3.6 NNW 1.8 1025.3
07:30 11.0 98 10.7 0.2 2.5 N 1.8 1025.3
07:40 11.1 98 10.8 0.0 2.5 SE 1.8 1025.3
07:50 11.1 98 10.8 0.0 0.0 N 1.8 1025.3
08:00 11.2 98 10.9 0.0 0.0 N 1.8 1025.3
08:10 11.2 98 10.9 0.0 0.0 N 1.8 1025.4
08:20 11.2 98 10.9 0.4 3.6 N 1.8 1025.4
08:30 11.3 98 11.0 0.2 2.5 NW 1.8 1025.4
08:40 11.3 98 11.0 0.1 2.5 SE 1.8 1025.4
08:50 11.4 98 11.1 0.4 2.5 SSE 1.8 1025.3
09:00 11.5 98 11.2 0.2 1.1 NE 1.8 1025.3
09:10 11.6 98 11.3 0.2 2.5 NNE 1.8 1025.3
09:20 11.7 98 11.4 0.1 2.5 NW 1.8 1025.2
09:30 11.9 98 11.6 0.0 0.0 N 1.8 1025.0
09:40 12.0 97 11.5 0.1 2.5 N 1.8 1025.2
09:50 12.1 97 11.6 0.0 2.5 NNE 1.8 1025.1
10:00 12.2 97 11.7 0.3 5.0 SE 0.0 1025.0
10:10 12.3 97 11.8 0.9 6.1 ESE 0.0 1025.1
10:20 12.4 97 11.9 0.5 6.1 SSE 0.0 1025.1
10:30 12.5 97 12.0 1.3 6.1 SSE 0.0 1024.9
10:40 12.8 97 12.3 1.4 5.0 E 0.0 1024.8
10:50 12.9 97 12.4 1.7 7.2 NE 0.0 1024.5
11:00 13.1 99 13.0 3.8 9.7 SSE 0.0 1024.5
11:10 13.1 99 13.0 1.3 6.1 SSE 0.0 1024.3
11:20 13.3 99 13.2 0.8 3.6 E 0.0 1024.1
11:30 13.4 98 13.1 1.8 6.1 ESE 0.0 1023.9
11:40 13.8 97 13.3 1.5 5.0 E 0.0 1023.7
11:50 14.1 95 13.3 0.7 5.0 NW 0.0 1023.5
12:00 14.4 94 13.5 1.5 6.1 N 0.0 1023.3
12:10 14.3 93 13.2 1.2 6.1 N 0.0 1023.3
12:20 14.7 92 13.4 1.8 6.1 E 0.0 1023.4
12:30 14.9 90 13.3 0.1 3.6 SW 0.0 1023.3
12:40 15.0 88 13.0 1.1 6.1 W 0.0 1023.4
12:50 15.1 88 13.1 0.4 5.0 W 0.0 1023.2
13:00 15.2 87 13.1 1.0 5.0 WSW 0.0 1023.1
13:10 15.4 87 13.3 2.7 6.1 SSE 0.0 1022.8
13:20 15.6 86 13.3 2.3 7.2 S 0.0 1022.7
13:30 15.5 85 13.0 0.6 3.6 SW 0.0 1022.6
13:40 15.5 85 13.0 0.5 5.0 WSW 0.0 1022.1
13:50 15.7 85 13.2 0.3 5.0 SE 0.0 1022.3
14:00 15.9 85 13.4 0.3 3.6 NW 0.0 1022.2
14:10 16.0 84 13.3 1.6 6.1 W 0.0 1022.1
14:20 16.1 84 13.4 2.6 6.1 SW 0.0 1021.7
14:30 16.0 84 13.3 0.2 5.0 SW 0.0 1021.5
14:40 16.0 84 13.3 1.1 3.6 SW 0.0 1021.5
14:50 16.0 84 13.3 1.1 3.6 SW 0.0 1021.1
15:00 16.0 84 13.3 1.1 3.6 SW 0.0 1021.1
15:10 16.0 86 13.7 0.2 5.0 WSW 0.0 1021.0
15:20 16.0 86 13.7 2.3 7.2 WSW 0.0 1020.8
15:30 15.8 87 13.6 0.5 7.2 WSW 0.0 1020.6
15:40 15.9 87 13.7 0.6 6.1 S 0.0 1020.5
15:50 15.9 87 13.7 1.0 6.1 S 0.0 1020.3
16:00 15.8 87 13.6 3.7 11.2 S 0.0 1019.9
16:10 15.8 88 13.8 1.9 9.7 SSW 0.0 1019.8
16:20 15.8 88 13.8 4.4 11.2 S 0.0 1019.5
16:30 15.8 88 13.8 3.9 11.2 S 0.0 1019.6
16:40 15.6 88 13.6 3.8 9.7 SSE 0.0 1019.4
16:50 15.4 88 13.4 3.0 8.6 SSE 0.0 1019.3
17:00 15.5 89 13.7 3.7 9.7 SSE 0.0 1019.0
17:10 15.5 89 13.7 2.4 7.2 SSE 0.0 1018.9
17:20 15.4 90 13.8 3.7 9.7 SSE 0.0 1018.6
17:30 15.5 90 13.9 3.0 9.7 SSE 0.0 1018.6
17:40 15.4 90 13.8 1.9 7.2 S 0.0 1018.3
17:50 15.4 90 13.8 0.3 3.6 SSW 0.0 1018.3
18:00 15.2 90 13.6 0.5 5.0 SSW 0.0 1018.1
18:10 15.2 91 13.7 0.2 6.1 SSW 0.0 1018.0
18:20 15.2 92 13.9 0.0 1.1 SW 0.0 1018.0
18:30 15.3 93 14.2 1.6 9.7 SSE 0.0 1017.8
18:40 15.4 93 14.3 3.4 9.7 SSE 0.0 1017.6
18:50 15.5 93 14.4 1.5 9.7 SE 0.0 1017.5
19:00 15.5 93 14.4 1.8 7.2 SE 0.0 1017.4
19:10 15.4 94 14.4 3.4 7.2 SE 0.0 1017.2
19:20 15.4 94 14.4 4.3 11.2 SE 0.0 1017.1
19:30 15.4 94 14.4 0.6 6.1 SSE 0.0 1017.1
19:40 15.4 94 14.4 0.8 6.1 ESE 0.0 1017.1
19:50 15.4 94 14.4 3.4 8.6 SE 0.0 1016.9
20:00 15.3 94 14.3 2.5 7.2 SE 0.0 1016.6
20:10 15.1 94 14.1 4.7 9.7 SE 0.0 1016.6
20:20 15.1 94 14.1 3.1 8.6 SE 0.0 1016.6
20:30 15.1 95 14.3 1.5 9.7 SE 0.0 1016.5
20:40 15.1 95 14.3 2.8 7.2 SE 0.0 1016.4
20:50 15.1 95 14.3 1.5 6.1 SE 0.0 1016.3
21:00 15.0 95 14.2 1.0 7.2 SE 0.0 1016.2
21:10 15.0 95 14.2 0.8 7.2 E 0.0 1016.1
21:20 15.0 95 14.2 0.6 3.6 ESE 0.0 1015.9
21:30 15.0 95 14.2 0.4 5.0 ESE 0.0 1015.8
21:40 15.0 95 14.2 2.3 6.1 SE 0.0 1015.6
21:50 15.0 95 14.2 0.2 3.6 SE 0.0 1015.7
22:00 15.0 96 14.4 0.6 6.1 SE 0.0 1015.6
22:10 15.0 96 14.4 0.4 5.0 ESE 0.3 1015.4
22:20 14.9 97 14.4 0.3 5.0 SSE 0.3 1015.0
22:30 14.9 97 14.4 1.8 6.1 SE 0.3 1014.8
22:40 14.9 97 14.4 1.3 5.0 SE 0.3 1014.8
22:50 14.9 97 14.4 1.1 6.1 ESE 0.3 1014.5
23:00 14.9 97 14.4 4.4 9.7 SE 0.3 1014.1
23:10 14.8 97 14.3 2.5 8.6 SE 0.6 1014.2
23:20 14.8 97 14.3 0.0 0.0 N 0.6 1014.0
23:30 14.6 98 14.3 3.8 8.6 SE 0.6 1013.3
23:40 14.6 98 14.3 3.3 9.7 ESE 0.6 1013.3
23:50 14.6 98 14.3 4.2 9.7 ESE 0.6 1012.9